createdAt,value
2023-05-25T00:43:05.871Z,12.11
2023-05-25T00:45:33.420Z,12.12
2023-05-25T00:48:01.985Z,12.13
2023-05-25T00:50:38.332Z,12.20
2023-05-25T00:53:06.474Z,12.21
2023-05-25T00:55:38.087Z,12.19
2023-05-25T00:58:08.984Z,12.20
2023-05-25T01:00:38.752Z,12.22
2023-05-25T01:03:12.511Z,12.24
2023-05-25T01:05:45.026Z,12.20
2023-05-25T01:08:14.806Z,12.17
2023-05-25T01:10:44.125Z,12.14
2023-05-25T01:13:15.586Z,12.13
2023-05-25T01:15:43.361Z,12.11
2023-05-25T01:18:15.090Z,12.11
2023-05-25T01:20:55.053Z,12.05
2023-05-25T01:23:29.822Z,12.02
2023-05-25T01:26:02.370Z,12.04
2023-05-25T01:28:36.160Z,12.05
2023-05-25T01:31:04.332Z,12.08
2023-05-25T01:33:33.022Z,12.07
2023-05-25T01:36:02.414Z,12.01
2023-05-25T01:38:29.965Z,11.94
2023-05-25T01:40:57.558Z,11.90
2023-05-25T01:43:25.115Z,11.87
2023-05-25T01:46:03.612Z,11.89
2023-05-25T01:48:38.597Z,11.92
2023-05-25T01:51:16.114Z,11.90
2023-05-25T01:53:46.733Z,11.86
2023-05-25T01:56:15.525Z,11.84
2023-05-25T01:58:44.629Z,11.82
2023-05-25T02:01:15.923Z,11.81
2023-05-25T02:03:44.811Z,11.80
2023-05-25T02:06:13.801Z,11.77
2023-05-25T02:08:41.373Z,11.76
2023-05-25T02:11:08.930Z,11.75
2023-05-25T02:13:36.519Z,11.77
2023-05-25T02:16:04.321Z,11.77
2023-05-25T02:18:32.064Z,11.79
2023-05-25T02:20:59.625Z,11.83
2023-05-25T02:23:28.527Z,11.79
2023-05-25T02:25:56.149Z,11.78
2023-05-25T02:28:23.729Z,11.77
2023-05-25T02:30:51.516Z,11.75
2023-05-25T02:33:20.248Z,11.77
2023-05-25T02:35:47.891Z,11.78
2023-05-25T02:38:15.637Z,11.83
2023-05-25T02:40:46.970Z,11.93
2023-05-25T02:43:14.537Z,11.97
2023-05-25T02:45:42.197Z,11.93
2023-05-25T02:48:09.914Z,11.86
2023-05-25T02:50:37.510Z,11.83
2023-05-25T02:53:05.575Z,11.76
2023-05-25T02:55:33.330Z,11.71
2023-05-25T02:58:02.255Z,11.63
2023-05-25T03:00:29.802Z,11.59
2023-05-25T03:02:57.375Z,11.50
2023-05-25T03:05:24.935Z,11.43
2023-05-25T03:07:52.667Z,11.44
2023-05-25T03:10:20.620Z,11.49
2023-05-25T03:12:48.192Z,11.50
2023-05-25T03:15:17.247Z,11.44
2023-05-25T03:17:44.874Z,11.36
2023-05-25T03:20:15.517Z,11.30
2023-05-25T03:22:43.230Z,11.26
2023-05-25T03:25:12.449Z,11.23
2023-05-25T03:27:40.090Z,11.17
2023-05-25T03:30:09.194Z,11.13
2023-05-25T03:32:38.097Z,11.12
2023-05-25T03:35:06.527Z,11.09
2023-05-25T03:37:34.485Z,11.04
2023-05-25T03:40:02.405Z,10.98
2023-05-25T03:42:29.971Z,10.97
2023-05-25T03:44:57.481Z,10.93
2023-05-25T03:47:25.066Z,10.94
2023-05-25T03:49:53.979Z,10.93
2023-05-25T03:52:21.528Z,10.92
2023-05-25T03:54:50.006Z,10.92
2023-05-25T03:57:17.559Z,10.94
2023-05-25T03:59:45.172Z,10.94
2023-05-25T04:02:12.705Z,10.95
2023-05-25T04:04:41.897Z,10.92
2023-05-25T04:07:10.929Z,10.85
2023-05-25T04:09:38.480Z,10.80
2023-05-25T04:12:06.454Z,10.74
2023-05-25T04:14:34.006Z,10.70
2023-05-25T04:17:01.565Z,10.68
2023-05-25T04:19:29.099Z,10.67
2023-05-25T04:21:56.840Z,10.68
2023-05-25T04:24:25.746Z,10.70
2023-05-25T04:26:53.352Z,10.70
2023-05-25T04:29:21.596Z,10.68
2023-05-25T04:31:49.632Z,10.68
2023-05-25T04:34:17.218Z,10.69
2023-05-25T04:36:45.197Z,10.67
2023-05-25T04:39:12.899Z,10.64
2023-05-25T04:41:43.053Z,10.64
2023-05-25T04:44:10.747Z,10.65
2023-05-25T04:46:38.993Z,10.66
2023-05-25T04:49:08.490Z,10.66
2023-05-25T04:51:36.976Z,10.71
2023-05-25T04:54:04.788Z,10.72
2023-05-25T04:56:32.429Z,10.69
2023-05-25T04:59:01.298Z,10.68
2023-05-25T05:01:29.172Z,10.69
2023-05-25T05:03:57.103Z,10.67
2023-05-25T05:06:25.694Z,10.66
2023-05-25T05:08:53.248Z,10.62
2023-05-25T05:11:20.807Z,10.61
2023-05-25T05:13:48.413Z,10.63
2023-05-25T05:16:17.386Z,10.69
2023-05-25T05:18:45.008Z,10.74
2023-05-25T05:21:12.577Z,10.80
2023-05-25T05:23:40.181Z,10.84
2023-05-25T05:26:10.957Z,10.85
2023-05-25T05:28:38.578Z,10.88
2023-05-25T05:31:06.829Z,10.89
2023-05-25T05:33:35.971Z,10.94
2023-05-25T05:36:04.767Z,10.97
2023-05-25T05:38:32.350Z,11.00
2023-05-25T05:41:00.085Z,11.02
2023-05-25T05:43:27.794Z,11.04
2023-05-25T05:45:55.482Z,11.08
2023-05-25T05:48:23.101Z,11.11
2023-05-25T05:50:52.729Z,11.13
2023-05-25T05:53:20.825Z,11.16
2023-05-25T05:55:49.535Z,11.12
2023-05-25T05:58:19.359Z,11.12
2023-05-25T06:00:46.904Z,11.14
2023-05-25T06:03:14.560Z,11.17
2023-05-25T06:05:42.323Z,11.19
2023-05-25T06:08:11.778Z,11.21
2023-05-25T06:10:39.442Z,11.25
2023-05-25T06:13:07.851Z,11.29
2023-05-25T06:15:35.923Z,11.35
2023-05-25T06:18:03.702Z,11.43
2023-05-25T06:20:31.417Z,11.49
2023-05-25T06:22:59.010Z,11.55
2023-05-25T06:25:27.914Z,11.66
2023-05-25T06:27:55.842Z,11.72
2023-05-25T06:30:23.408Z,11.83
2023-05-25T06:32:50.946Z,11.90
2023-05-25T06:35:19.862Z,12.00
2023-05-25T06:37:48.825Z,12.08
2023-05-25T06:40:16.853Z,12.15
2023-05-25T06:42:45.779Z,12.27
2023-05-25T06:45:14.395Z,12.34
2023-05-25T06:47:41.963Z,12.40
2023-05-25T06:50:10.536Z,12.45
2023-05-25T06:52:38.123Z,12.51
2023-05-25T06:55:12.944Z,12.56
2023-05-25T06:57:49.467Z,12.63
2023-05-25T07:00:24.903Z,12.69
2023-05-25T07:03:09.114Z,12.76
2023-05-25T07:05:45.274Z,12.86
2023-05-25T07:08:20.916Z,12.93
2023-05-25T07:11:01.598Z,12.96
2023-05-25T07:13:38.036Z,12.97
2023-05-25T07:16:11.380Z,13.01
2023-05-25T07:19:13.902Z,13.06
2023-05-25T07:21:53.489Z,13.16
2023-05-25T07:35:14.742Z,13.82
2023-05-25T07:37:53.855Z,13.92
2023-05-25T07:40:30.845Z,14.07
2023-05-25T07:43:12.613Z,14.20
2023-05-25T07:45:47.015Z,14.33
2023-05-25T07:48:14.685Z,14.46
2023-05-25T07:50:42.326Z,14.57
2023-05-25T07:53:11.227Z,14.70
2023-05-25T07:55:38.757Z,14.80
2023-05-25T07:58:07.545Z,14.90
2023-05-25T08:00:35.160Z,14.98
2023-05-25T08:03:03.559Z,15.09
2023-05-25T08:05:31.259Z,15.22
2023-05-25T08:07:59.105Z,15.35
2023-05-25T08:10:32.148Z,15.45
2023-05-25T08:13:02.285Z,15.55
2023-05-25T08:15:29.840Z,15.63
2023-05-25T08:17:57.578Z,15.77
2023-05-25T08:20:26.009Z,15.91
2023-05-25T08:22:54.462Z,16.04
2023-05-25T08:25:22.336Z,16.19
2023-05-25T08:27:51.279Z,16.32
2023-05-25T08:30:18.923Z,16.46
2023-05-25T08:32:46.572Z,16.60
2023-05-25T08:35:14.953Z,16.75
2023-05-25T08:37:43.353Z,16.93
2023-05-25T08:40:15.829Z,17.06
2023-05-25T08:42:43.772Z,17.16
2023-05-25T08:45:26.387Z,17.23
2023-05-25T08:48:02.583Z,17.33
2023-05-25T08:50:32.511Z,17.41
2023-05-25T08:53:06.407Z,17.45
2023-05-25T08:55:37.773Z,17.49
2023-05-25T08:58:11.496Z,17.55
2023-05-25T09:00:46.146Z,17.58
2023-05-25T09:03:19.027Z,17.62
2023-05-25T09:05:47.267Z,17.68
2023-05-25T09:08:17.687Z,17.78
2023-05-25T09:10:45.436Z,17.89
2023-05-25T09:13:22.123Z,17.97
2023-05-25T09:15:52.967Z,18.02
2023-05-25T09:18:20.922Z,18.08
2023-05-25T09:20:50.428Z,18.15
2023-05-25T09:23:18.271Z,18.18
2023-05-25T09:25:47.480Z,18.19
2023-05-25T09:30:45.874Z,18.25
2023-05-25T09:33:17.969Z,18.29
2023-05-25T09:35:46.618Z,18.34
2023-05-25T09:38:16.374Z,18.38
2023-05-25T09:40:44.821Z,18.44
2023-05-25T09:43:21.838Z,18.47
2023-05-25T09:45:53.688Z,18.55
2023-05-25T09:48:23.105Z,18.61
2023-05-25T09:50:50.983Z,18.71
2023-05-25T09:53:18.749Z,18.82
2023-05-25T09:55:53.790Z,18.91
2023-05-25T09:58:24.756Z,19.00
2023-05-25T10:00:55.486Z,19.05
2023-05-25T10:03:24.763Z,19.14
2023-05-25T10:05:53.258Z,19.23
2023-05-25T10:08:23.429Z,19.34
2023-05-25T10:10:51.354Z,19.35
2023-05-25T10:13:21.908Z,19.37
2023-05-25T10:15:53.080Z,19.38
2023-05-25T10:18:26.391Z,19.42
2023-05-25T10:21:01.969Z,19.46
2023-05-25T10:23:36.676Z,19.51
2023-05-25T10:26:08.716Z,19.54
2023-05-25T10:28:38.447Z,19.58
2023-05-25T10:31:06.517Z,19.61
2023-05-25T10:33:38.251Z,19.61
2023-05-25T10:36:11.271Z,19.61
2023-05-25T10:38:40.937Z,19.66
2023-05-25T10:41:11.038Z,19.71
2023-05-25T10:43:39.303Z,19.75
2023-05-25T10:46:07.991Z,19.85
2023-05-25T10:48:40.922Z,19.90
2023-05-25T10:51:11.094Z,19.89
2023-05-25T10:53:39.753Z,19.89
2023-05-25T10:56:10.520Z,19.89
2023-05-25T10:58:42.630Z,19.91
2023-05-25T11:01:12.403Z,19.91
2023-05-25T11:03:54.738Z,19.89
2023-05-25T11:06:23.830Z,19.88
2023-05-25T11:08:54.755Z,19.90
2023-05-25T11:11:23.268Z,19.89
2023-05-25T11:13:51.471Z,19.91
2023-05-25T11:16:24.474Z,19.89
2023-05-25T11:18:57.715Z,19.91
2023-05-25T11:21:44.013Z,19.94
2023-05-25T11:24:16.673Z,20.01
2023-05-25T11:26:55.971Z,20.06
2023-05-25T11:29:26.864Z,20.10
2023-05-25T11:31:55.942Z,20.16
2023-05-25T11:34:26.000Z,20.19
2023-05-25T11:37:01.616Z,20.17
2023-05-25T11:39:29.832Z,20.23
2023-05-25T11:42:02.608Z,20.31
2023-05-25T11:44:31.543Z,20.39
2023-05-25T11:47:02.975Z,20.44
2023-05-25T11:49:31.835Z,20.48
2023-05-25T11:51:59.396Z,20.51
2023-05-25T11:54:28.980Z,20.54
2023-05-25T11:56:59.495Z,20.54
2023-05-25T11:59:29.788Z,20.58
2023-05-25T12:02:00.162Z,20.62
2023-05-25T12:04:28.041Z,20.65
2023-05-25T12:07:04.324Z,20.73
2023-05-25T12:09:32.269Z,20.80
2023-05-25T12:12:00.744Z,20.84
2023-05-25T12:14:28.394Z,20.89
2023-05-25T12:16:56.341Z,20.97
2023-05-25T12:19:24.167Z,20.99
2023-05-25T12:21:52.174Z,21.04
2023-05-25T12:24:21.272Z,21.11
2023-05-25T12:26:49.691Z,21.16
2023-05-25T12:29:17.572Z,21.19
2023-05-25T12:31:45.170Z,21.18
2023-05-25T12:34:13.988Z,21.22
2023-05-25T12:36:43.776Z,21.31
2023-05-25T12:39:12.609Z,21.37
2023-05-25T12:41:50.664Z,21.42
2023-05-25T12:44:25.161Z,21.45
2023-05-25T12:46:55.144Z,21.43
2023-05-25T12:49:31.367Z,21.39
2023-05-25T12:52:00.049Z,21.38
2023-05-25T12:54:40.798Z,21.44
2023-05-25T12:57:11.317Z,21.47
2023-05-25T12:59:39.844Z,21.46
2023-05-25T13:02:08.298Z,21.43
2023-05-25T13:04:36.919Z,21.36
2023-05-25T13:07:04.770Z,21.31
2023-05-25T13:09:32.866Z,21.28
2023-05-25T13:12:00.624Z,21.25
2023-05-25T13:14:30.861Z,21.25
2023-05-25T13:16:58.464Z,21.28
2023-05-25T13:19:26.929Z,21.34
2023-05-25T13:21:55.967Z,21.44
2023-05-25T13:24:24.260Z,21.52
2023-05-25T13:26:51.847Z,21.54
2023-05-25T13:29:19.708Z,21.55
2023-05-25T13:31:48.742Z,21.55
2023-05-25T13:34:16.471Z,21.51
2023-05-25T13:36:44.051Z,21.51
2023-05-25T13:39:13.547Z,21.55
2023-05-25T13:41:41.847Z,21.57
2023-05-25T13:44:11.091Z,21.58
2023-05-25T13:46:38.764Z,21.58
2023-05-25T13:49:07.872Z,21.59
2023-05-25T13:51:35.792Z,21.61
2023-05-25T13:54:04.256Z,21.65
2023-05-25T13:56:32.347Z,21.71
2023-05-25T14:01:28.528Z,21.79
2023-05-25T14:03:57.805Z,21.81
2023-05-25T14:06:27.014Z,21.88
2023-05-25T14:08:54.629Z,21.90
2023-05-25T14:11:28.158Z,21.88
2023-05-25T14:13:56.473Z,21.84
2023-05-25T14:16:24.019Z,21.80
2023-05-25T14:18:51.638Z,21.78
2023-05-25T14:21:19.225Z,21.77
2023-05-25T14:23:48.158Z,21.77
2023-05-25T14:26:15.680Z,21.79
2023-05-25T14:28:43.248Z,21.84
2023-05-25T14:31:12.344Z,21.86
2023-05-25T14:33:42.179Z,21.90
2023-05-25T14:36:10.629Z,21.91
2023-05-25T14:38:38.224Z,21.89
2023-05-25T14:41:07.132Z,21.90
2023-05-25T14:43:34.954Z,21.89
2023-05-25T14:46:02.557Z,21.87
2023-05-25T14:48:30.161Z,21.85
2023-05-25T14:50:59.143Z,21.85
2023-05-25T14:53:26.715Z,21.86
2023-05-25T14:55:54.262Z,21.86
2023-05-25T14:58:23.191Z,21.90
2023-05-25T15:00:50.979Z,21.91
2023-05-25T15:03:18.969Z,21.92
2023-05-25T15:05:46.879Z,21.93
2023-05-25T15:08:14.547Z,21.95
2023-05-25T15:10:42.140Z,21.95
2023-05-25T15:13:10.861Z,21.96
2023-05-25T15:15:41.745Z,21.98
2023-05-25T15:18:09.414Z,21.99
2023-05-25T15:20:37.150Z,22.00
2023-05-25T15:23:04.799Z,22.02
2023-05-25T15:25:47.801Z,22.02
2023-05-25T15:28:15.615Z,22.01
2023-05-25T15:30:44.508Z,21.99
2023-05-25T15:33:14.253Z,21.98
2023-05-25T15:35:42.045Z,21.96
2023-05-25T15:38:09.678Z,21.95
2023-05-25T15:40:37.680Z,21.95
2023-05-25T15:43:05.290Z,21.93
2023-05-25T15:45:32.886Z,21.90
2023-05-25T15:48:01.816Z,21.87
2023-05-25T15:50:29.385Z,21.85
2023-05-25T15:52:56.977Z,21.83
2023-05-25T15:55:24.572Z,21.83
2023-05-25T15:57:52.116Z,21.82
2023-05-25T16:00:20.284Z,21.80
2023-05-25T16:02:47.863Z,21.80
2023-05-25T16:05:16.808Z,21.81
2023-05-25T16:07:44.363Z,21.80
2023-05-25T16:10:12.129Z,21.79
2023-05-25T16:12:39.774Z,21.77
2023-05-25T16:15:08.167Z,21.78
2023-05-25T16:17:35.736Z,21.75
2023-05-25T16:20:03.392Z,21.71
2023-05-25T16:22:32.345Z,21.71
2023-05-25T16:27:27.364Z,21.75
2023-05-25T16:29:54.926Z,21.76
2023-05-25T16:32:22.547Z,21.75
2023-05-25T16:34:50.481Z,21.76
2023-05-25T16:37:18.051Z,21.79
2023-05-25T16:39:46.982Z,21.79
2023-05-25T16:42:14.525Z,21.77
2023-05-25T16:44:42.068Z,21.75
2023-05-25T16:49:37.118Z,21.73
2023-05-25T16:52:05.069Z,21.72
2023-05-25T16:54:32.631Z,21.71
2023-05-25T16:57:01.695Z,21.70
2023-05-25T16:59:29.257Z,21.69
2023-05-25T17:01:56.938Z,21.67
2023-05-25T17:04:24.517Z,21.66
2023-05-25T17:06:52.038Z,21.66
2023-05-25T17:09:19.571Z,21.66
2023-05-25T17:11:47.103Z,21.64
2023-05-25T17:14:16.377Z,21.63
2023-05-25T17:16:43.965Z,21.62
2023-05-25T17:19:14.751Z,21.59
2023-05-25T17:21:42.756Z,21.58
2023-05-25T17:24:10.736Z,21.55
2023-05-25T17:26:38.289Z,21.54
2023-05-25T17:29:06.189Z,21.52
2023-05-25T17:31:35.504Z,21.52
2023-05-25T17:34:03.178Z,21.51
2023-05-25T17:36:30.802Z,21.50
2023-05-25T17:38:58.589Z,21.50
2023-05-25T17:41:26.335Z,21.49
2023-05-25T17:43:53.952Z,21.47
2023-05-25T17:46:21.649Z,21.48
2023-05-25T17:48:50.635Z,21.45
2023-05-25T17:51:20.700Z,21.45
2023-05-25T17:53:48.329Z,21.45
2023-05-25T17:56:15.901Z,21.42
2023-05-25T17:58:47.232Z,21.37
2023-05-25T18:01:15.786Z,21.34
2023-05-25T18:03:43.682Z,21.30
2023-05-25T18:06:12.708Z,21.29
2023-05-25T18:08:40.363Z,21.28
2023-05-25T18:11:07.964Z,21.26
2023-05-25T18:13:35.542Z,21.24
2023-05-25T18:16:03.308Z,21.21
2023-05-25T18:18:31.252Z,21.18
2023-05-25T18:20:59.331Z,21.15
2023-05-25T18:23:28.423Z,21.12
2023-05-25T18:25:56.154Z,21.10
2023-05-25T18:28:23.795Z,21.09
2023-05-25T18:30:51.461Z,21.07
2023-05-25T18:33:19.043Z,21.04
2023-05-25T18:35:47.086Z,20.98
2023-05-25T18:38:14.851Z,20.94
2023-05-25T18:40:43.743Z,20.91
2023-05-25T18:43:11.610Z,20.88
2023-05-25T18:45:39.250Z,20.84
2023-05-25T18:48:08.170Z,20.78
2023-05-25T18:50:35.962Z,20.75
2023-05-25T18:53:03.569Z,20.70
2023-05-25T18:55:31.163Z,20.67
2023-05-25T18:58:00.091Z,20.63
2023-05-25T19:00:27.701Z,20.58
2023-05-25T19:02:55.367Z,20.53
2023-05-25T19:05:24.232Z,20.50
2023-05-25T19:07:58.924Z,20.45
2023-05-25T19:10:27.457Z,20.39
2023-05-25T19:12:55.213Z,20.33
2023-05-25T19:15:24.141Z,20.25
2023-05-25T19:17:52.078Z,20.21
2023-05-25T19:20:19.764Z,20.11
2023-05-25T19:22:47.680Z,20.02
2023-05-25T19:25:15.312Z,19.94
2023-05-25T19:27:42.883Z,19.85
2023-05-25T19:30:10.874Z,19.75
2023-05-25T19:32:39.803Z,19.62
2023-05-25T19:35:07.835Z,19.53
2023-05-25T19:37:37.115Z,19.41
2023-05-25T19:40:06.325Z,19.30
2023-05-25T19:42:33.921Z,19.19
2023-05-25T19:45:01.495Z,19.07
2023-05-25T19:47:29.136Z,19.00
2023-05-25T19:49:58.105Z,18.92
2023-05-25T19:52:25.690Z,18.88
2023-05-25T19:54:53.224Z,18.86
2023-05-25T19:57:20.866Z,18.82
2023-05-25T19:59:50.031Z,18.78
2023-05-25T22:37:44.460Z,16.83
2023-05-25T22:40:13.243Z,16.76
2023-05-25T22:42:40.806Z,16.72
2023-05-25T22:45:09.415Z,16.65
2023-05-25T22:47:37.409Z,16.63
2023-05-25T22:50:18.958Z,16.62
2023-05-25T22:52:52.942Z,16.56
2023-05-25T22:55:28.943Z,16.56
2023-05-25T22:58:02.786Z,16.50
2023-05-25T23:00:40.720Z,16.43
2023-05-25T23:03:21.080Z,16.37
2023-05-25T23:06:00.036Z,16.34
2023-05-25T23:08:46.246Z,16.31
2023-05-25T23:11:29.118Z,16.28
2023-05-25T23:14:08.525Z,16.26
2023-05-25T23:16:46.792Z,16.25
2023-05-25T23:19:25.151Z,16.20
2023-05-25T23:22:13.658Z,16.17
2023-05-25T23:24:49.345Z,16.08
2023-05-25T23:27:28.486Z,15.98
2023-05-25T23:30:04.861Z,15.91
2023-05-25T23:32:41.276Z,15.92
2023-05-25T23:35:19.450Z,15.91
2023-05-25T23:37:52.678Z,15.89
2023-05-25T23:40:32.140Z,15.87
2023-05-25T23:43:05.982Z,15.82
2023-05-25T23:45:49.876Z,15.74
2023-05-25T23:48:27.890Z,15.66
2023-05-25T23:51:06.033Z,15.58
2023-05-25T23:53:44.039Z,15.54
2023-05-25T23:56:25.051Z,15.49
2023-05-25T23:59:03.487Z,15.44
